MMTC/TRC METAR and TAF weather

Enter ICAO airport designator
Station Type Date Time Source
MMTC METAR 2019/09/20 19:40 UTC NOAA

MMTC 201940Z 07006KT 10SM BKN020 BKN200 33/15 A2995 RMK 8/102 TCU VC ISOL AC


Station Type Date Time Source
MMTC Decoded METAR 2019/09/20 19:40 UTC NOAA

Torreon, Coah., Mexico (MMTC) 25-32N 103-27W 1150M
Sep 20, 2019 - 03:40 PM EDT / 2019.09.20 1940 UTC
Wind: from the ENE (070 degrees) at 7 MPH (6 KT):0
Visibility: 10 mile(s):0
Sky conditions: mostly cloudy
Weather: Towering cumulus clouds observed
Temperature: 91 F (33 C)
Dew Point: 59 F (15 C)
Relative Humidity: 33%
Pressure (altimeter): 29.95 in. Hg (1014 hPa)
ob: MMTC 201940Z 07006KT 10SM BKN020 BKN200 33/15 A2995 RMK 8/102 TCU VC ISOL AC
cycle: 19

Station Type Date Time Source
MMTC TAF 2019/09/20 18:52 UTC NOAA

TAF MMTC 201645Z 2018/2118 12012KT P6SM SCT030
FM202100 06012KT P6SM BKN030CB
FM210000 06020KT 2SM BLDU BKN025CB
FM210100 04015KT 5SM TSRA BKN025CB
FM210300 09010KT P6SM SCT030 BKN100

Example: see airport list